createdAt,value
2022-12-23T00:00:25.139Z,11.13
2022-12-23T00:02:55.228Z,10.96
2022-12-23T00:05:25.121Z,11.13
2022-12-23T00:07:54.896Z,11.23
2022-12-23T00:10:24.637Z,11.36
2022-12-23T00:13:12.102Z,11.06
2022-12-23T00:15:41.846Z,11.04
2022-12-23T00:18:12.673Z,11.06
2022-12-23T00:20:42.478Z,10.94
2022-12-23T00:23:11.983Z,11.09
2022-12-23T00:25:46.334Z,10.98
2022-12-23T00:28:21.563Z,10.91
2022-12-23T00:31:02.508Z,11.01
2022-12-23T00:33:37.667Z,10.92
2022-12-23T00:36:27.462Z,11.11
2022-12-23T00:39:18.410Z,11.00
2022-12-23T00:42:06.152Z,10.96
2022-12-23T00:44:36.182Z,11.14
2022-12-23T00:47:06.305Z,11.13
2022-12-23T00:49:45.100Z,10.95
2022-12-23T00:52:18.805Z,10.87
2022-12-23T00:54:48.579Z,10.75
2022-12-23T00:57:18.334Z,10.94
2022-12-23T00:59:48.395Z,10.87
2022-12-23T01:02:35.856Z,10.73
2022-12-23T01:05:26.143Z,10.85
2022-12-23T01:07:55.910Z,10.71
2022-12-23T01:10:25.673Z,10.81
2022-12-23T01:12:55.580Z,10.75
2022-12-23T01:15:25.380Z,10.82
2022-12-23T01:17:55.481Z,10.82
2022-12-23T01:20:25.805Z,10.84
2022-12-23T01:22:55.597Z,10.87
2022-12-23T01:25:25.379Z,10.78
2022-12-23T01:27:55.484Z,10.72
2022-12-23T01:30:25.289Z,10.85
2022-12-23T01:32:55.091Z,10.96
2022-12-23T01:35:24.844Z,10.77
2022-12-23T01:37:54.596Z,10.97
2022-12-23T01:40:24.352Z,10.86
2022-12-23T01:42:54.403Z,10.78
2022-12-23T01:45:32.678Z,10.86
2022-12-23T01:48:11.193Z,10.88
2022-12-23T01:50:49.692Z,10.89
2022-12-23T01:53:22.869Z,10.99
2022-12-23T01:56:10.160Z,10.96
2022-12-23T01:58:45.704Z,10.78
2022-12-23T02:01:34.225Z,10.81
2022-12-23T02:04:09.257Z,10.77
2022-12-23T02:07:01.601Z,10.89
2022-12-23T02:09:33.917Z,11.08
2022-12-23T02:12:25.964Z,10.63
2022-12-23T02:15:22.254Z,10.85
2022-12-23T02:18:03.362Z,10.73
2022-12-23T02:21:07.316Z,10.73
2022-12-23T02:23:42.765Z,10.75
2022-12-23T02:26:18.205Z,10.87
2022-12-23T02:29:23.438Z,10.88
2022-12-23T02:31:55.928Z,10.82
2022-12-23T02:34:46.334Z,10.93
2022-12-23T02:37:27.619Z,10.85
2022-12-23T02:40:12.397Z,10.88
2022-12-23T02:42:45.515Z,10.86
2022-12-23T02:45:21.555Z,10.81
2022-12-23T02:47:56.750Z,10.86
2022-12-23T02:50:32.348Z,10.85
2022-12-23T02:53:16.779Z,10.86
2022-12-23T02:55:49.888Z,10.87
2022-12-23T02:58:22.812Z,10.91
2022-12-23T03:00:52.483Z,10.68
2022-12-23T03:03:22.981Z,10.80
2022-12-23T03:05:53.746Z,10.74
2022-12-23T03:08:28.992Z,10.69
2022-12-23T03:11:07.361Z,10.91
2022-12-23T03:13:48.151Z,10.89
2022-12-23T03:16:24.160Z,10.82
2022-12-23T03:19:11.889Z,10.77
2022-12-23T03:21:53.177Z,10.77
2022-12-23T03:24:46.574Z,10.76
2022-12-23T03:27:19.364Z,10.71
2022-12-23T03:29:58.098Z,10.71
2022-12-23T03:32:30.039Z,10.57
2022-12-23T03:35:03.212Z,10.68
2022-12-23T03:37:35.924Z,10.72
2022-12-23T03:40:16.721Z,10.68
2022-12-23T03:42:50.265Z,10.67
2022-12-23T03:45:38.787Z,10.60
2022-12-23T03:48:02.848Z,10.61
2022-12-23T03:50:34.832Z,10.77
2022-12-23T03:53:07.590Z,10.72
2022-12-23T03:55:46.285Z,10.75
2022-12-23T03:58:24.624Z,10.57
2022-12-23T04:00:57.744Z,10.62
2022-12-23T04:03:46.795Z,10.62
2022-12-23T04:06:19.133Z,10.64
2022-12-23T04:08:50.709Z,10.65
2022-12-23T04:11:21.202Z,10.62
2022-12-23T04:13:51.067Z,10.62
2022-12-23T04:16:21.001Z,10.64
2022-12-23T04:18:50.825Z,10.67
2022-12-23T04:21:20.667Z,10.74
2022-12-23T04:23:50.426Z,10.72
2022-12-23T04:26:20.196Z,10.76
2022-12-23T04:28:49.957Z,10.65
2022-12-23T04:31:21.435Z,10.84
2022-12-23T04:33:51.167Z,10.82
2022-12-23T04:36:20.963Z,10.94
2022-12-23T04:38:50.795Z,10.84
2022-12-23T04:41:20.437Z,10.77
2022-12-23T04:43:52.927Z,10.75
2022-12-23T04:46:21.907Z,10.63
2022-12-23T04:48:51.723Z,10.84
2022-12-23T04:51:21.430Z,10.56
2022-12-23T04:53:51.269Z,10.38
2022-12-23T04:56:20.966Z,10.57
2022-12-23T04:58:50.735Z,10.62
2022-12-23T05:01:20.619Z,10.77
2022-12-23T05:03:50.708Z,10.77
2022-12-23T05:06:20.230Z,10.83
2022-12-23T05:08:49.987Z,10.70
2022-12-23T05:11:19.731Z,10.57
2022-12-23T05:13:49.791Z,10.80
2022-12-23T05:16:19.545Z,10.86
2022-12-23T05:18:49.928Z,10.77
2022-12-23T05:21:20.258Z,10.86
2022-12-23T05:23:50.057Z,10.75
2022-12-23T05:26:19.649Z,10.60
2022-12-23T05:28:49.673Z,10.81
2022-12-23T05:31:19.531Z,10.67
2022-12-23T05:33:49.729Z,10.58
2022-12-23T05:36:19.188Z,10.50
2022-12-23T05:38:49.261Z,10.60
2022-12-23T05:41:19.094Z,10.72
2022-12-23T05:43:48.872Z,10.68
2022-12-23T05:46:25.918Z,10.74
2022-12-23T05:48:50.454Z,10.49
2022-12-23T05:51:20.234Z,10.64
2022-12-23T05:53:50.027Z,10.63
2022-12-23T05:56:19.796Z,10.74
2022-12-23T05:58:49.550Z,10.63
2022-12-23T06:01:19.283Z,10.58
2022-12-23T06:03:49.193Z,10.58
2022-12-23T06:06:19.056Z,10.70
2022-12-23T06:08:51.982Z,10.79
2022-12-23T06:11:20.307Z,10.75
2022-12-23T06:13:50.063Z,10.75
2022-12-23T06:16:19.774Z,10.76
2022-12-23T06:18:49.630Z,10.92
2022-12-23T06:21:19.365Z,10.92
2022-12-23T06:23:49.119Z,10.77
2022-12-23T06:26:18.758Z,10.70
2022-12-23T06:28:48.850Z,10.73
2022-12-23T06:31:18.950Z,10.73
2022-12-23T06:33:48.798Z,10.83
2022-12-23T06:36:18.232Z,10.83
2022-12-23T06:38:48.020Z,10.78
2022-12-23T06:41:17.991Z,10.78
2022-12-23T06:43:51.209Z,10.48
2022-12-23T06:46:19.288Z,10.68
2022-12-23T06:48:49.035Z,10.62
2022-12-23T06:51:18.775Z,10.73
2022-12-23T06:53:48.631Z,10.72
2022-12-23T06:56:18.569Z,10.83
2022-12-23T06:58:48.316Z,10.82
2022-12-23T07:01:18.141Z,10.75
2022-12-23T07:03:47.936Z,10.64
2022-12-23T07:06:17.708Z,10.67
2022-12-23T07:08:47.758Z,10.75
2022-12-23T07:11:17.530Z,10.75
2022-12-23T07:13:47.824Z,10.93
2022-12-23T07:16:17.730Z,10.77
2022-12-23T07:18:47.491Z,10.92
2022-12-23T07:21:26.510Z,10.93
2022-12-23T07:23:48.700Z,10.92
2022-12-23T07:26:18.456Z,10.93
2022-12-23T07:28:48.711Z,10.91
2022-12-23T07:31:18.487Z,10.82
2022-12-23T07:33:48.318Z,10.97
2022-12-23T07:36:18.053Z,10.96
2022-12-23T07:38:52.493Z,10.92
2022-12-23T07:41:22.549Z,10.83
2022-12-23T07:43:52.626Z,10.64
2022-12-23T07:46:22.269Z,10.84
2022-12-23T07:48:52.014Z,10.77
2022-12-23T07:51:22.115Z,10.79
2022-12-23T07:53:52.212Z,10.93
2022-12-23T07:56:22.165Z,10.91
2022-12-23T07:58:53.349Z,10.89
2022-12-23T08:01:23.288Z,10.98
2022-12-23T08:03:53.234Z,10.90
2022-12-23T08:06:22.943Z,11.05
2022-12-23T08:08:52.706Z,10.98
2022-12-23T08:11:22.485Z,11.05
2022-12-23T08:13:52.886Z,10.92
2022-12-23T08:16:22.432Z,10.95
2022-12-23T08:18:52.242Z,10.98
2022-12-23T08:21:22.051Z,11.03
2022-12-23T08:23:52.817Z,11.09
2022-12-23T08:26:24.601Z,10.95
2022-12-23T08:28:54.713Z,10.90
2022-12-23T08:31:27.233Z,10.99
2022-12-23T08:33:59.289Z,11.05
2022-12-23T08:36:32.350Z,11.06
2022-12-23T08:39:08.277Z,11.08
2022-12-23T08:41:46.932Z,11.04
2022-12-23T08:44:20.542Z,11.19
2022-12-23T08:46:50.941Z,11.14
2022-12-23T08:49:26.249Z,11.08
2022-12-23T08:51:56.209Z,11.09
2022-12-23T08:54:25.814Z,11.01
2022-12-23T08:56:55.575Z,11.17
2022-12-23T08:59:25.407Z,11.13
2022-12-23T09:01:55.306Z,11.10
2022-12-23T09:04:25.126Z,11.14
2022-12-23T09:06:54.997Z,11.00
2022-12-23T09:09:24.811Z,11.09
2022-12-23T09:11:54.944Z,10.94
2022-12-23T09:14:24.599Z,11.00
2022-12-23T09:16:54.396Z,11.12
2022-12-23T09:19:24.189Z,10.98
2022-12-23T09:21:53.971Z,10.91
2022-12-23T09:24:24.112Z,10.83
2022-12-23T09:26:53.859Z,10.83
2022-12-23T09:29:23.699Z,10.88
2022-12-23T09:31:53.550Z,10.93
2022-12-23T09:34:22.971Z,10.93
2022-12-23T09:36:55.437Z,10.93
2022-12-23T09:39:24.636Z,10.87
2022-12-23T09:42:09.401Z,10.90
2022-12-23T09:44:47.974Z,10.91
2022-12-23T09:47:20.781Z,11.02
2022-12-23T09:49:56.284Z,10.92
2022-12-23T09:52:28.501Z,11.09
2022-12-23T09:54:58.551Z,10.99
2022-12-23T09:57:39.733Z,10.94
2022-12-23T10:00:17.639Z,10.99
2022-12-23T10:03:16.215Z,10.95
2022-12-23T10:06:05.213Z,11.09
2022-12-23T10:08:37.667Z,11.09
2022-12-23T10:11:25.160Z,11.11
2022-12-23T10:13:58.012Z,11.11
2022-12-23T10:16:33.351Z,11.01
2022-12-23T10:19:08.949Z,11.07
2022-12-23T10:21:50.851Z,11.17
2022-12-23T10:24:29.163Z,10.88
2022-12-23T10:27:02.138Z,11.12
2022-12-23T10:29:33.745Z,11.09
2022-12-23T10:32:06.654Z,11.00
2022-12-23T10:35:01.840Z,11.11
2022-12-23T10:37:34.442Z,11.08
2022-12-23T10:40:21.015Z,11.20
2022-12-23T10:43:05.639Z,11.06
2022-12-23T10:45:38.462Z,10.92
2022-12-23T10:48:21.261Z,10.94
2022-12-23T10:51:02.795Z,10.98
2022-12-23T10:53:42.100Z,10.98
2022-12-23T10:56:12.107Z,11.06
2022-12-23T10:58:45.119Z,10.83
2022-12-23T11:01:26.178Z,10.81
2022-12-23T11:04:02.910Z,10.88
2022-12-23T11:06:37.608Z,10.72
2022-12-23T11:09:08.064Z,10.96
2022-12-23T11:12:03.037Z,10.95
2022-12-23T11:14:38.788Z,10.75
2022-12-23T11:17:09.039Z,10.62
2022-12-23T11:19:38.910Z,10.79
2022-12-23T11:22:12.629Z,10.93
2022-12-23T11:24:43.423Z,10.78
2022-12-23T11:27:18.616Z,11.04
2022-12-23T11:29:54.498Z,11.09
2022-12-23T11:32:29.431Z,10.84
2022-12-23T11:34:59.244Z,10.97
2022-12-23T11:37:34.982Z,11.03
2022-12-23T11:40:09.760Z,10.93
2022-12-23T11:42:41.756Z,10.93
2022-12-23T11:45:13.043Z,11.03
2022-12-23T11:47:43.145Z,10.98
2022-12-23T11:50:33.395Z,11.05
2022-12-23T11:53:23.957Z,11.08
2022-12-23T11:56:05.929Z,11.12
2022-12-23T11:58:50.447Z,11.04
2022-12-23T12:01:23.188Z,10.95
2022-12-23T12:03:59.338Z,10.97
2022-12-23T12:06:30.410Z,11.07
2022-12-23T12:09:02.979Z,10.77
2022-12-23T12:11:39.809Z,10.84
2022-12-23T12:14:09.124Z,10.96
2022-12-23T12:16:56.550Z,10.84
2022-12-23T12:19:32.009Z,10.86
2022-12-23T12:22:04.865Z,10.78
2022-12-23T12:24:40.742Z,10.69
2022-12-23T12:27:12.945Z,10.75
2022-12-23T12:29:51.221Z,10.74
2022-12-23T12:32:35.871Z,10.68
2022-12-23T12:35:17.043Z,10.62
2022-12-23T12:37:49.892Z,10.66
2022-12-23T12:40:22.377Z,10.66
2022-12-23T12:42:57.879Z,10.68
2022-12-23T12:45:36.173Z,10.76
2022-12-23T12:48:32.123Z,10.73
2022-12-23T12:51:10.405Z,10.83
2022-12-23T12:53:43.253Z,10.74
2022-12-23T12:56:16.027Z,10.74
2022-12-23T12:58:46.200Z,10.78
2022-12-23T13:01:31.096Z,10.64
2022-12-23T13:04:09.703Z,10.44
2022-12-23T13:06:54.694Z,10.60
2022-12-23T13:09:58.995Z,10.39
2022-12-23T13:12:34.172Z,10.57
2022-12-23T13:15:18.178Z,10.54
2022-12-23T13:18:03.507Z,10.39
2022-12-23T13:20:41.730Z,10.56
2022-12-23T13:23:44.156Z,10.48
2022-12-23T13:26:00.955Z,10.53
2022-12-23T13:28:36.387Z,10.66
2022-12-23T13:31:18.423Z,10.69
2022-12-23T13:33:50.963Z,10.57
2022-12-23T13:36:29.876Z,10.32
2022-12-23T13:39:02.705Z,10.55
2022-12-23T13:41:47.555Z,10.48
2022-12-23T13:44:19.026Z,10.41
2022-12-23T13:47:11.007Z,10.65
2022-12-23T13:49:55.396Z,10.60
2022-12-23T13:52:50.455Z,10.69
2022-12-23T13:55:39.636Z,10.51
2022-12-23T13:58:20.133Z,10.51
2022-12-23T14:01:01.662Z,10.58
2022-12-23T14:03:36.081Z,10.64
2022-12-23T14:06:26.340Z,10.73
2022-12-23T14:08:56.843Z,10.76
2022-12-23T14:11:34.108Z,10.70
2022-12-23T14:14:08.023Z,10.65
2022-12-23T14:16:59.974Z,10.82
2022-12-23T14:19:51.938Z,10.69
2022-12-23T14:22:45.531Z,10.71
2022-12-23T14:25:40.405Z,10.78
2022-12-23T14:28:23.575Z,10.66
2022-12-23T14:30:53.535Z,10.72
2022-12-23T14:33:32.357Z,10.69
2022-12-23T14:36:22.868Z,10.70
2022-12-23T14:39:15.882Z,10.77
2022-12-23T14:41:55.617Z,10.74
2022-12-23T14:44:40.815Z,10.64
2022-12-23T14:47:32.831Z,10.72
2022-12-23T14:50:37.050Z,10.44
2022-12-23T14:53:21.869Z,10.36
2022-12-23T14:55:53.647Z,10.64
2022-12-23T15:01:15.674Z,10.68
2022-12-23T15:03:48.862Z,10.59
2022-12-23T15:06:21.756Z,10.76
2022-12-23T15:08:54.016Z,10.53
2022-12-23T15:11:26.431Z,10.46
2022-12-23T15:13:59.221Z,10.52
2022-12-23T15:16:37.538Z,10.63
2022-12-23T15:19:25.164Z,10.63
2022-12-23T15:22:20.674Z,10.69
2022-12-23T15:24:42.772Z,10.57
2022-12-23T15:27:27.431Z,10.55
2022-12-23T15:29:52.687Z,10.28
2022-12-23T15:32:24.904Z,10.33
2022-12-23T15:35:00.317Z,10.25
2022-12-23T15:37:32.283Z,10.53
2022-12-23T15:40:11.945Z,10.57
2022-12-23T15:42:35.628Z,10.48
2022-12-23T15:45:37.155Z,10.44
2022-12-23T15:48:27.388Z,10.29
2022-12-23T15:51:05.969Z,10.73
2022-12-23T15:53:38.776Z,10.72
2022-12-23T15:56:12.974Z,10.63
2022-12-23T15:58:43.639Z,10.66
2022-12-23T16:01:18.300Z,10.82
2022-12-23T16:03:57.029Z,10.95
2022-12-23T16:06:35.855Z,10.57
2022-12-23T16:09:09.360Z,10.79
2022-12-23T16:12:04.085Z,10.79
2022-12-23T16:14:39.634Z,10.85
2022-12-23T16:17:13.017Z,10.85
2022-12-23T16:19:51.622Z,10.81
2022-12-23T16:22:30.218Z,10.59
2022-12-23T16:25:11.721Z,10.72
2022-12-23T16:27:46.944Z,10.84
2022-12-23T16:30:22.420Z,10.86
2022-12-23T16:32:55.271Z,10.82
2022-12-23T16:35:30.773Z,10.88
2022-12-23T16:38:14.830Z,10.79
2022-12-23T16:40:47.696Z,10.72
2022-12-23T16:43:18.653Z,10.90
2022-12-23T16:45:54.336Z,10.56
2022-12-23T16:48:29.588Z,10.56
2022-12-23T16:51:00.081Z,10.65
2022-12-23T16:53:29.903Z,10.45
2022-12-23T16:56:01.023Z,10.35
2022-12-23T16:58:31.345Z,10.38
2022-12-23T17:01:01.221Z,10.46
2022-12-23T17:03:32.472Z,10.54
2022-12-23T17:06:02.261Z,10.60
2022-12-23T17:08:32.047Z,10.94
2022-12-23T17:11:01.860Z,10.95
2022-12-23T17:13:31.946Z,10.92
2022-12-23T17:16:02.022Z,10.94
2022-12-23T17:18:31.883Z,11.06
2022-12-23T17:21:01.596Z,11.26
2022-12-23T17:23:32.881Z,11.24
2022-12-23T17:26:02.937Z,11.19
2022-12-23T17:28:33.824Z,11.26
2022-12-23T17:31:08.669Z,11.17
2022-12-23T17:33:35.913Z,11.21
2022-12-23T17:36:07.159Z,11.40
2022-12-23T17:38:36.950Z,11.26
2022-12-23T17:41:07.248Z,11.23
2022-12-23T17:43:37.049Z,11.35
2022-12-23T17:46:09.460Z,11.47
2022-12-23T17:48:39.208Z,11.25
2022-12-23T17:51:15.025Z,11.27
2022-12-23T17:53:45.215Z,11.30
2022-12-23T17:56:17.456Z,11.51
2022-12-23T17:58:49.733Z,11.50
2022-12-23T18:01:28.153Z,11.61
2022-12-23T18:03:59.867Z,11.71
2022-12-23T18:06:30.325Z,11.64
2022-12-23T18:09:00.175Z,11.37
2022-12-23T18:11:35.637Z,11.71
2022-12-23T18:14:05.960Z,11.47
2022-12-23T18:16:35.838Z,11.53
2022-12-23T18:19:07.957Z,11.25
2022-12-23T18:21:37.934Z,11.33
2022-12-23T18:24:11.635Z,11.29
2022-12-23T18:26:41.751Z,11.28
2022-12-23T18:29:11.563Z,11.45
2022-12-23T18:31:50.204Z,11.45
2022-12-23T18:34:18.053Z,11.49
2022-12-23T18:36:48.379Z,11.43
2022-12-23T18:39:18.629Z,11.42
2022-12-23T18:41:48.374Z,11.29
2022-12-23T18:44:21.002Z,11.43
2022-12-23T18:46:51.236Z,11.29
2022-12-23T18:49:21.056Z,11.37
2022-12-23T18:51:50.800Z,11.41
2022-12-23T18:54:20.548Z,11.29
2022-12-23T18:56:50.699Z,11.38
2022-12-23T18:59:29.617Z,11.33
2022-12-23T19:01:54.805Z,11.46
2022-12-23T19:04:24.624Z,11.36
2022-12-23T19:06:56.543Z,11.47
2022-12-23T19:09:26.851Z,11.26
2022-12-23T19:11:56.581Z,11.26
2022-12-23T19:14:26.596Z,11.45
2022-12-23T19:16:57.787Z,11.45
2022-12-23T19:19:28.051Z,11.54
2022-12-23T19:21:57.879Z,11.47
2022-12-23T19:24:27.631Z,11.51
2022-12-23T19:26:57.405Z,11.50
2022-12-23T19:29:27.306Z,11.43
2022-12-23T19:31:57.067Z,11.33
2022-12-23T19:34:26.573Z,11.66
2022-12-23T19:36:56.367Z,11.41
2022-12-23T19:39:26.897Z,11.49
2022-12-23T19:41:56.926Z,11.43
2022-12-23T19:44:26.833Z,11.43
2022-12-23T19:46:56.594Z,11.42
2022-12-23T19:49:26.769Z,11.63
2022-12-23T19:51:56.535Z,11.56
2022-12-23T19:54:26.656Z,11.46
2022-12-23T19:56:56.688Z,11.41
2022-12-23T19:59:26.799Z,11.43
2022-12-23T20:01:57.165Z,11.48
2022-12-23T20:04:26.735Z,11.48
2022-12-23T20:06:56.802Z,11.47
2022-12-23T20:09:26.951Z,11.31
2022-12-23T20:11:56.695Z,11.56
2022-12-23T20:14:31.950Z,11.41
2022-12-23T20:16:57.932Z,11.30
2022-12-23T20:19:27.816Z,11.15
2022-12-23T20:21:57.676Z,11.38
2022-12-23T20:24:27.281Z,11.23
2022-12-23T20:26:57.863Z,11.27
2022-12-23T20:29:27.978Z,11.28
2022-12-23T20:31:57.867Z,11.37
2022-12-23T20:34:29.908Z,11.23
2022-12-23T20:36:59.089Z,11.22
2022-12-23T20:39:29.040Z,11.15
2022-12-23T20:41:58.790Z,11.20
2022-12-23T20:44:36.806Z,11.02
2022-12-23T20:46:59.802Z,11.09
2022-12-23T20:49:29.608Z,11.03
2022-12-23T20:51:59.417Z,10.93
2022-12-23T20:54:33.288Z,10.98
2022-12-23T20:57:01.257Z,10.97
2022-12-23T20:59:31.152Z,10.74
2022-12-23T21:02:01.848Z,10.71
2022-12-23T21:04:31.611Z,10.83
2022-12-23T21:07:01.382Z,10.87
2022-12-23T21:09:31.270Z,10.87
2022-12-23T21:12:01.837Z,10.76
2022-12-23T21:14:31.619Z,10.80
2022-12-23T21:17:01.424Z,10.91
2022-12-23T21:19:31.365Z,10.95
2022-12-23T21:22:01.363Z,10.86
2022-12-23T21:24:30.787Z,10.90
2022-12-23T21:27:00.541Z,10.79
2022-12-23T21:29:30.269Z,10.87
2022-12-23T21:32:00.595Z,10.76
2022-12-23T21:34:30.260Z,10.73
2022-12-23T21:37:00.130Z,10.55
2022-12-23T21:39:30.301Z,10.71
2022-12-23T21:42:00.113Z,10.55
2022-12-23T21:44:29.924Z,10.52
2022-12-23T21:46:59.734Z,10.32
2022-12-23T21:49:29.874Z,10.40
2022-12-23T21:51:59.686Z,10.58
2022-12-23T21:54:29.121Z,10.63
2022-12-23T21:56:58.875Z,10.72
2022-12-23T21:59:34.705Z,10.69
2022-12-23T22:01:59.870Z,10.77
2022-12-23T22:04:29.605Z,10.64
2022-12-23T22:06:59.097Z,10.81
2022-12-23T22:09:28.816Z,10.69
2022-12-23T22:11:58.860Z,10.75
2022-12-23T22:14:28.667Z,10.79
2022-12-23T22:16:58.785Z,10.75
2022-12-23T22:19:28.656Z,10.88
2022-12-23T22:21:58.406Z,10.90
2022-12-23T22:24:28.022Z,10.84
2022-12-23T22:26:57.817Z,10.84
2022-12-23T22:29:27.849Z,11.03
2022-12-23T22:31:57.695Z,10.83
2022-12-23T22:34:27.210Z,10.82
2022-12-23T22:36:57.015Z,10.85
2022-12-23T22:39:26.869Z,10.74
2022-12-23T22:41:56.607Z,10.83
2022-12-23T22:44:26.447Z,10.61
2022-12-23T22:46:56.370Z,10.70
2022-12-23T22:49:26.299Z,10.63
2022-12-23T22:51:56.121Z,10.55
2022-12-23T22:54:25.564Z,10.61
2022-12-23T22:56:55.598Z,10.36
2022-12-23T22:59:26.387Z,10.42
2022-12-23T23:01:56.207Z,10.55
2022-12-23T23:04:25.727Z,10.54
2022-12-23T23:06:55.839Z,10.43
2022-12-23T23:09:25.648Z,10.47
2022-12-23T23:11:55.685Z,10.49
2022-12-23T23:14:25.292Z,10.49
2022-12-23T23:16:55.172Z,10.54
2022-12-23T23:19:24.941Z,10.63
2022-12-23T23:21:55.558Z,10.52
2022-12-23T23:26:55.840Z,10.62
2022-12-23T23:29:25.296Z,10.61
2022-12-23T23:31:55.085Z,10.35
2022-12-23T23:34:24.688Z,10.49
2022-12-23T23:36:54.733Z,10.41
2022-12-23T23:39:24.465Z,10.48
2022-12-23T23:41:54.540Z,10.50
2022-12-23T23:44:24.883Z,10.37
2022-12-23T23:46:54.622Z,10.50
2022-12-23T23:49:24.730Z,10.41
2022-12-23T23:51:54.933Z,10.63
2022-12-23T23:54:24.378Z,10.55
2022-12-23T23:56:54.085Z,10.54
2022-12-23T23:59:23.834Z,10.49
